Mumford, NY (14511)

11:07 AM EDT on August 25, 2016 (GMT -0400)
Mumford | | Change Station

Elev 600 ft 43.00 °N, 77.85 °W | Updated 7 seconds ago

Overcast
Overcast
76.3 °F
Feels Like 77 °F
N
2.5
Wind Variable Wind from WSW
Gusts 2.5 mph

Today
High -- | Low -- °F
--% Chance of Precip.
Yesterday
High -- | Low -- °F
Precip. -- in
Pressure 29.96 in
Visibility 10.0 miles
Clouds Few 1300 ft
Mostly Cloudy 6000 ft
Overcast 18000 ft
Heat Index 77 °F
Dew Point 74 °F
Humidity 91%
Rainfall 0.14 in
Snow Depth Not available.
6:28 AM 7:57 PM
Last Quarter, 45% visible
METAR KROC 251454Z 23009KT 10SM FEW013 BKN060 OVC180 26/23 A2997 RMK AO2 SLP145 T02610228 53003
Pressure 29.96 in
Visibility 10.0 miles
Clouds Few 1300 ft
Mostly Cloudy 6000 ft
Overcast 18000 ft
Heat Index 77 °F
Dew Point 74 °F
Humidity 91%
Rainfall 0.14 in
Snow Depth Not available.
6:28 AM 7:57 PM
Last Quarter, 45% visible
METAR KROC 251454Z 23009KT 10SM FEW013 BKN060 OVC180 26/23 A2997 RMK AO2 SLP145 T02610228 53003

10-Day Weather Forecast

Almanac

Astronomy

Aug. 25, 2016 Rise Set
Actual Time
Civil Twilight
Nautical Twilight
Astronomical Twilight
Moon
Length of Visible Light
Length of Day
Tomorrow will be .
, % of the Moon is Illuminated

Today's Extremes

State Highs State Lows

Community

WunderPhotos

Upload Photos

1,934,854 photos uploaded!

WunderBlog® & News

Nearby

Air Quality

  Air Quality AQ Index Pollutant
Not available.

Snow Depth

Station Depth Elevation

Earthquake Activity

City Distance Mag. Time & Date
Minimum magnitude displayed is 2.5.

Coastal Water Temperatures

Place Temperature

Stations

Nearby Weather Stations

Station Location Temp. Windchill Dew Point Humidity Wind Precip. Elev Updated Type
                   

Watches & Warnings

There are currently no watches in effect.